<?xml version="1.0" encoding="UTF-8" standalone="no" ?>
<gpx xmlns="http://www.topografix.com/GPX/1/1" creator="Trails - GPS Tracker - own track" version="1.1" xmlns:xsi="http://www.w3.org/2001/XMLSchema-instance" xsi:schemaLocation="http://www.topografix.com/GPX/1/1 http://www.topografix.com/GPX/1/1/gpx.xsd">
<trk>
	<name>Ahorn Skitour</name>
	<desc>Von Ahornbahn zur Ahornhütte</desc>
	<trkseg>
		<trkpt lat="47.160499" lon="11.860033">
			<ele>553.485718</ele>
			<time>2012-01-23T09:14:12Z</time>
		</trkpt>
		<trkpt lat="47.160499" lon="11.860033">
			<ele>553.485718</ele>
			<time>2012-01-23T09:14:13Z</time>
		</trkpt>
		<trkpt lat="47.159988" lon="11.860023">
			<ele>655.485779</ele>
			<time>2012-01-23T09:14:26Z</time>
		</trkpt>
		<trkpt lat="47.159571" lon="11.859758">
			<ele>670.485657</ele>
			<time>2012-01-23T09:16:13Z</time>
		</trkpt>
		<trkpt lat="47.159131" lon="11.859566">
			<ele>676.485535</ele>
			<time>2012-01-23T09:16:57Z</time>
		</trkpt>
		<trkpt lat="47.158677" lon="11.859502">
			<ele>679.485535</ele>
			<time>2012-01-23T09:17:56Z</time>
		</trkpt>
		<trkpt lat="47.158232" lon="11.859351">
			<ele>685.485474</ele>
			<time>2012-01-23T09:18:47Z</time>
		</trkpt>
		<trkpt lat="47.157783" lon="11.859290">
			<ele>690.485474</ele>
			<time>2012-01-23T09:19:58Z</time>
		</trkpt>
		<trkpt lat="47.157395" lon="11.859626">
			<ele>706.485840</ele>
			<time>2012-01-23T09:21:34Z</time>
		</trkpt>
		<trkpt lat="47.157293" lon="11.860268">
			<ele>714.486328</ele>
			<time>2012-01-23T09:22:53Z</time>
		</trkpt>
		<trkpt lat="47.157124" lon="11.860883">
			<ele>721.486816</ele>
			<time>2012-01-23T09:24:03Z</time>
		</trkpt>
		<trkpt lat="47.156820" lon="11.861380">
			<ele>727.487305</ele>
			<time>2012-01-23T09:24:59Z</time>
		</trkpt>
		<trkpt lat="47.156680" lon="11.862009">
			<ele>731.487793</ele>
			<time>2012-01-23T09:25:58Z</time>
		</trkpt>
		<trkpt lat="47.156506" lon="11.862620">
			<ele>741.488342</ele>
			<time>2012-01-23T09:26:59Z</time>
		</trkpt>
		<trkpt lat="47.156304" lon="11.863221">
			<ele>749.488831</ele>
			<time>2012-01-23T09:27:54Z</time>
		</trkpt>
		<trkpt lat="47.155907" lon="11.863544">
			<ele>751.489136</ele>
			<time>2012-01-23T09:28:49Z</time>
		</trkpt>
		<trkpt lat="47.155708" lon="11.864136">
			<ele>764.489624</ele>
			<time>2012-01-23T09:34:11Z</time>
		</trkpt>
		<trkpt lat="47.155255" lon="11.864185">
			<ele>802.489746</ele>
			<time>2012-01-23T09:46:53Z</time>
		</trkpt>
		<trkpt lat="47.154816" lon="11.864343">
			<ele>823.489929</ele>
			<time>2012-01-23T09:50:14Z</time>
		</trkpt>
		<trkpt lat="47.154367" lon="11.864419">
			<ele>858.490051</ele>
			<time>2012-01-23T09:53:32Z</time>
		</trkpt>
		<trkpt lat="47.153891" lon="11.864458">
			<ele>867.490112</ele>
			<time>2012-01-23T09:57:29Z</time>
		</trkpt>
		<trkpt lat="47.153440" lon="11.864540">
			<ele>886.490234</ele>
			<time>2012-01-23T10:01:51Z</time>
		</trkpt>
		<trkpt lat="47.153130" lon="11.864056">
			<ele>908.489929</ele>
			<time>2012-01-23T10:18:05Z</time>
		</trkpt>
		<trkpt lat="47.152799" lon="11.863607">
			<ele>915.489624</ele>
			<time>2012-01-23T10:19:29Z</time>
		</trkpt>
		<trkpt lat="47.152680" lon="11.864247">
			<ele>919.490112</ele>
			<time>2012-01-23T10:21:42Z</time>
		</trkpt>
		<trkpt lat="47.152339" lon="11.863817">
			<ele>946.489807</ele>
			<time>2012-01-23T10:25:16Z</time>
		</trkpt>
		<trkpt lat="47.151974" lon="11.863424">
			<ele>965.489563</ele>
			<time>2012-01-23T10:27:50Z</time>
		</trkpt>
		<trkpt lat="47.151719" lon="11.862881">
			<ele>993.489136</ele>
			<time>2012-01-23T10:30:17Z</time>
		</trkpt>
		<trkpt lat="47.152081" lon="11.862481">
			<ele>1005.488770</ele>
			<time>2012-01-23T10:32:10Z</time>
		</trkpt>
		<trkpt lat="47.152197" lon="11.861835">
			<ele>1005.488281</ele>
			<time>2012-01-23T10:33:09Z</time>
		</trkpt>
		<trkpt lat="47.151963" lon="11.861266">
			<ele>1005.487854</ele>
			<time>2012-01-23T10:34:14Z</time>
		</trkpt>
		<trkpt lat="47.151655" lon="11.860780">
			<ele>1015.487488</ele>
			<time>2012-01-23T10:36:02Z</time>
		</trkpt>
		<trkpt lat="47.151742" lon="11.860127">
			<ele>1031.486938</ele>
			<time>2012-01-23T10:37:58Z</time>
		</trkpt>
		<trkpt lat="47.151451" lon="11.859620">
			<ele>1053.486572</ele>
			<time>2012-01-23T10:45:26Z</time>
		</trkpt>
		<trkpt lat="47.151284" lon="11.859006">
			<ele>1061.486084</ele>
			<time>2012-01-23T10:47:11Z</time>
		</trkpt>
		<trkpt lat="47.150856" lon="11.859211">
			<ele>1080.486328</ele>
			<time>2012-01-23T10:50:45Z</time>
		</trkpt>
		<trkpt lat="47.150406" lon="11.859151">
			<ele>1098.486328</ele>
			<time>2012-01-23T10:53:13Z</time>
		</trkpt>
		<trkpt lat="47.150277" lon="11.858488">
			<ele>1113.485840</ele>
			<time>2012-01-23T10:55:35Z</time>
		</trkpt>
		<trkpt lat="47.150045" lon="11.857917">
			<ele>1121.485352</ele>
			<time>2012-01-23T10:56:47Z</time>
		</trkpt>
		<trkpt lat="47.149810" lon="11.857346">
			<ele>1133.484985</ele>
			<time>2012-01-23T10:58:39Z</time>
		</trkpt>
		<trkpt lat="47.149435" lon="11.856968">
			<ele>1143.484741</ele>
			<time>2012-01-23T11:00:07Z</time>
		</trkpt>
		<trkpt lat="47.149005" lon="11.856766">
			<ele>1148.484619</ele>
			<time>2012-01-23T11:01:22Z</time>
		</trkpt>
		<trkpt lat="47.148733" lon="11.857295">
			<ele>1160.485107</ele>
			<time>2012-01-23T11:03:23Z</time>
		</trkpt>
		<trkpt lat="47.148701" lon="11.857957">
			<ele>1177.485596</ele>
			<time>2012-01-23T11:05:56Z</time>
		</trkpt>
		<trkpt lat="47.148545" lon="11.858579">
			<ele>1197.486084</ele>
			<time>2012-01-23T11:07:45Z</time>
		</trkpt>
		<trkpt lat="47.148461" lon="11.859233">
			<ele>1212.486694</ele>
			<time>2012-01-23T11:10:16Z</time>
		</trkpt>
		<trkpt lat="47.148143" lon="11.859712">
			<ele>1229.487061</ele>
			<time>2012-01-23T11:13:43Z</time>
		</trkpt>
		<trkpt lat="47.147729" lon="11.859451">
			<ele>1251.486938</ele>
			<time>2012-01-23T11:15:26Z</time>
		</trkpt>
		<trkpt lat="47.147349" lon="11.859093">
			<ele>1260.486694</ele>
			<time>2012-01-23T11:18:27Z</time>
		</trkpt>
		<trkpt lat="47.146904" lon="11.859218">
			<ele>1262.486816</ele>
			<time>2012-01-23T11:21:37Z</time>
		</trkpt>
		<trkpt lat="47.146506" lon="11.859528">
			<ele>1288.487183</ele>
			<time>2012-01-23T11:25:54Z</time>
		</trkpt>
		<trkpt lat="47.146411" lon="11.858882">
			<ele>1296.486694</ele>
			<time>2012-01-23T11:27:00Z</time>
		</trkpt>
		<trkpt lat="47.146328" lon="11.858224">
			<ele>1301.486084</ele>
			<time>2012-01-23T11:28:09Z</time>
		</trkpt>
		<trkpt lat="47.146294" lon="11.857560">
			<ele>1308.485596</ele>
			<time>2012-01-23T11:29:15Z</time>
		</trkpt>
		<trkpt lat="47.146387" lon="11.856911">
			<ele>1317.485107</ele>
			<time>2012-01-23T11:30:29Z</time>
		</trkpt>
		<trkpt lat="47.146171" lon="11.856323">
			<ele>1323.484619</ele>
			<time>2012-01-23T11:35:39Z</time>
		</trkpt>
		<trkpt lat="47.145940" lon="11.855753">
			<ele>1335.484253</ele>
			<time>2012-01-23T11:37:10Z</time>
		</trkpt>
		<trkpt lat="47.145698" lon="11.855196">
			<ele>1339.483765</ele>
			<time>2012-01-23T11:38:11Z</time>
		</trkpt>
		<trkpt lat="47.145458" lon="11.854633">
			<ele>1349.483398</ele>
			<time>2012-01-23T11:39:18Z</time>
		</trkpt>
		<trkpt lat="47.145182" lon="11.854100">
			<ele>1354.483032</ele>
			<time>2012-01-23T11:40:21Z</time>
		</trkpt>
		<trkpt lat="47.144866" lon="11.853622">
			<ele>1359.482666</ele>
			<time>2012-01-23T11:41:22Z</time>
		</trkpt>
		<trkpt lat="47.144548" lon="11.853151">
			<ele>1363.482300</ele>
			<time>2012-01-23T11:42:20Z</time>
		</trkpt>
		<trkpt lat="47.144263" lon="11.852636">
			<ele>1369.481934</ele>
			<time>2012-01-23T11:43:33Z</time>
		</trkpt>
		<trkpt lat="47.143960" lon="11.852135">
			<ele>1380.481567</ele>
			<time>2012-01-23T11:57:46Z</time>
		</trkpt>
		<trkpt lat="47.143654" lon="11.851652">
			<ele>1384.481201</ele>
			<time>2012-01-23T11:59:09Z</time>
		</trkpt>
		<trkpt lat="47.143233" lon="11.851884">
			<ele>1405.481445</ele>
			<time>2012-01-23T12:02:20Z</time>
		</trkpt>
		<trkpt lat="47.143031" lon="11.852474">
			<ele>1425.481934</ele>
			<time>2012-01-23T12:05:01Z</time>
		</trkpt>
		<trkpt lat="47.143215" lon="11.853077">
			<ele>1416.482422</ele>
			<time>2012-01-23T12:06:34Z</time>
		</trkpt>
		<trkpt lat="47.142792" lon="11.853301">
			<ele>1452.482666</ele>
			<time>2012-01-23T12:09:24Z</time>
		</trkpt>
		<trkpt lat="47.142428" lon="11.852913">
			<ele>1462.482422</ele>
			<time>2012-01-23T12:10:55Z</time>
		</trkpt>
		<trkpt lat="47.142115" lon="11.852437">
			<ele>1462.482056</ele>
			<time>2012-01-23T12:12:52Z</time>
		</trkpt>
		<trkpt lat="47.141784" lon="11.851987">
			<ele>1478.481689</ele>
			<time>2012-01-23T12:15:15Z</time>
		</trkpt>
		<trkpt lat="47.141339" lon="11.852089">
			<ele>1494.481812</ele>
			<time>2012-01-23T12:18:30Z</time>
		</trkpt>
		<trkpt lat="47.141096" lon="11.852651">
			<ele>1509.482300</ele>
			<time>2012-01-23T12:21:00Z</time>
		</trkpt>
		<trkpt lat="47.141091" lon="11.853315">
			<ele>1523.482910</ele>
			<time>2012-01-23T12:23:10Z</time>
		</trkpt>
		<trkpt lat="47.140766" lon="11.853775">
			<ele>1552.483276</ele>
			<time>2012-01-23T12:29:22Z</time>
		</trkpt>
		<trkpt lat="47.140326" lon="11.853618">
			<ele>1564.483276</ele>
			<time>2012-01-23T12:32:07Z</time>
		</trkpt>
		<trkpt lat="47.139935" lon="11.853948">
			<ele>1585.483521</ele>
			<time>2012-01-23T12:36:12Z</time>
		</trkpt>
		<trkpt lat="47.139850" lon="11.854596">
			<ele>1593.484009</ele>
			<time>2012-01-23T12:39:32Z</time>
		</trkpt>
		<trkpt lat="47.140121" lon="11.855131">
			<ele>1605.484497</ele>
			<time>2012-01-23T12:41:01Z</time>
		</trkpt>
		<trkpt lat="47.140396" lon="11.855657">
			<ele>1611.484863</ele>
			<time>2012-01-23T12:46:32Z</time>
		</trkpt>
		<trkpt lat="47.140443" lon="11.856314">
			<ele>1631.485352</ele>
			<time>2012-01-23T12:49:23Z</time>
		</trkpt>
		<trkpt lat="47.140105" lon="11.856755">
			<ele>1647.485718</ele>
			<time>2012-01-23T12:52:14Z</time>
		</trkpt>
		<trkpt lat="47.139656" lon="11.856816">
			<ele>1674.485840</ele>
			<time>2012-01-23T12:54:06Z</time>
		</trkpt>
		<trkpt lat="47.139471" lon="11.857417">
			<ele>1667.486328</ele>
			<time>2012-01-23T12:57:57Z</time>
		</trkpt>
		<trkpt lat="47.139603" lon="11.858049">
			<ele>1696.486816</ele>
			<time>2012-01-23T13:01:55Z</time>
		</trkpt>
		<trkpt lat="47.139493" lon="11.858688">
			<ele>1706.487427</ele>
			<time>2012-01-23T13:04:30Z</time>
		</trkpt>
		<trkpt lat="47.139519" lon="11.859351">
			<ele>1716.487915</ele>
			<time>2012-01-23T13:15:41Z</time>
		</trkpt>
		<trkpt lat="47.139866" lon="11.859770">
			<ele>1725.488159</ele>
			<time>2012-01-23T13:17:00Z</time>
		</trkpt>
		<trkpt lat="47.139411" lon="11.859794">
			<ele>1738.488281</ele>
			<time>2012-01-23T13:19:17Z</time>
		</trkpt>
		<trkpt lat="47.139719" lon="11.860286">
			<ele>1758.488647</ele>
			<time>2012-01-23T13:22:02Z</time>
		</trkpt>
		<trkpt lat="47.139983" lon="11.860831">
			<ele>1763.489014</ele>
			<time>2012-01-23T13:23:01Z</time>
		</trkpt>
		<trkpt lat="47.140199" lon="11.861422">
			<ele>1771.489502</ele>
			<time>2012-01-23T13:24:00Z</time>
		</trkpt>
		<trkpt lat="47.140388" lon="11.862025">
			<ele>1771.489990</ele>
			<time>2012-01-23T13:25:04Z</time>
		</trkpt>
		<trkpt lat="47.140038" lon="11.861608">
			<ele>1780.489624</ele>
			<time>2012-01-23T13:27:03Z</time>
		</trkpt>
		<trkpt lat="47.139744" lon="11.861109">
			<ele>1786.489258</ele>
			<time>2012-01-23T13:28:22Z</time>
		</trkpt>
		<trkpt lat="47.139354" lon="11.860758">
			<ele>1789.489014</ele>
			<time>2012-01-23T13:29:16Z</time>
		</trkpt>
		<trkpt lat="47.138899" lon="11.860700">
			<ele>1791.489014</ele>
			<time>2012-01-23T13:30:14Z</time>
		</trkpt>
		<trkpt lat="47.139018" lon="11.861341">
			<ele>1804.489624</ele>
			<time>2012-01-23T13:34:49Z</time>
		</trkpt>
		<trkpt lat="47.138567" lon="11.861405">
			<ele>1823.489624</ele>
			<time>2012-01-23T13:38:41Z</time>
		</trkpt>
		<trkpt lat="47.138120" lon="11.861295">
			<ele>1828.489624</ele>
			<time>2012-01-23T13:39:49Z</time>
		</trkpt>
		<trkpt lat="47.137675" lon="11.861191">
			<ele>1834.489624</ele>
			<time>2012-01-23T13:41:03Z</time>
		</trkpt>
		<trkpt lat="47.137289" lon="11.861542">
			<ele>1844.489990</ele>
			<time>2012-01-23T13:43:03Z</time>
		</trkpt>
		<trkpt lat="47.137206" lon="11.862192">
			<ele>1855.490479</ele>
			<time>2012-01-23T13:46:15Z</time>
		</trkpt>
		<trkpt lat="47.137049" lon="11.862817">
			<ele>1867.490967</ele>
			<time>2012-01-23T13:49:34Z</time>
		</trkpt>
		<trkpt lat="47.136785" lon="11.863357">
			<ele>1871.491455</ele>
			<time>2012-01-23T13:51:13Z</time>
		</trkpt>
		<trkpt lat="47.136556" lon="11.863929">
			<ele>1878.491943</ele>
			<time>2012-01-23T13:53:29Z</time>
		</trkpt>
		<trkpt lat="47.136374" lon="11.864534">
			<ele>1887.492432</ele>
			<time>2012-01-23T13:56:06Z</time>
		</trkpt>
		<trkpt lat="47.136315" lon="11.865195">
			<ele>1891.493042</ele>
			<time>2012-01-23T13:57:04Z</time>
		</trkpt>
		<trkpt lat="47.136325" lon="11.865861">
			<ele>1899.493530</ele>
			<time>2012-01-23T13:59:10Z</time>
		</trkpt>
		<trkpt lat="47.136317" lon="11.866523">
			<ele>1916.494141</ele>
			<time>2012-01-23T14:01:48Z</time>
		</trkpt>
		<trkpt lat="47.136327" lon="11.867183">
			<ele>1926.494629</ele>
			<time>2012-01-23T14:03:50Z</time>
		</trkpt>
		<trkpt lat="47.136204" lon="11.867819">
			<ele>1933.495117</ele>
			<time>2012-01-23T14:05:40Z</time>
		</trkpt>
		<trkpt lat="47.136012" lon="11.868416">
			<ele>1944.495605</ele>
			<time>2012-01-23T14:09:14Z</time>
		</trkpt>
		<trkpt lat="47.135932" lon="11.869067">
			<ele>1948.496216</ele>
			<time>2012-01-23T14:10:46Z</time>
		</trkpt>
		<trkpt lat="47.135965" lon="11.869732">
			<ele>1958.496704</ele>
			<time>2012-01-23T14:12:54Z</time>
		</trkpt>
	</trkseg>
</trk></gpx>